createdAt,value
2023-04-25T00:00:41.755Z,2.2
2023-04-25T00:15:42.209Z,2.5
2023-04-25T00:30:44.560Z,2.6
2023-04-25T00:45:43.151Z,3
2023-04-25T01:00:44.168Z,3.4
2023-04-25T01:15:44.734Z,3.7
2023-04-25T01:30:45.242Z,3.5
2023-04-25T01:45:45.615Z,3.6
2023-04-25T02:00:45.987Z,3.3
2023-04-25T02:15:47.101Z,3.7
2023-04-25T02:30:47.227Z,3.4
2023-04-25T02:45:48.280Z,3.1
2023-04-25T03:00:49.064Z,3.4
2023-04-25T03:15:50.551Z,3.7
2023-04-25T03:30:50.341Z,4.1
2023-04-25T03:45:51.559Z,4.2
2023-04-25T04:00:52.032Z,4
2023-04-25T04:15:19.962Z,5.1
2023-04-25T04:30:20.678Z,3.5
2023-04-25T04:45:21.441Z,3.7
2023-04-25T05:00:23.935Z,7.8
2023-04-25T05:15:24.635Z,4.9
2023-04-25T05:30:25.346Z,4.8
2023-04-25T05:45:26.903Z,4.6
2023-04-25T06:00:26.447Z,4.9
2023-04-25T06:15:29.357Z,4.2
2023-04-25T06:30:27.252Z,4.2
2023-04-25T06:45:34.011Z,4
2023-04-25T07:00:30.315Z,3.3
2023-04-25T07:15:31.454Z,3
2023-04-25T07:30:31.805Z,2.8
2023-04-25T07:45:32.773Z,3.1
2023-04-25T08:00:34.736Z,2
2023-04-25T08:15:35.568Z,2.3
2023-04-25T08:30:35.099Z,2.4
2023-04-25T08:45:35.284Z,1.8
2023-04-25T09:00:36.046Z,2.2
2023-04-25T09:15:37.485Z,2.4
2023-04-25T09:30:38.154Z,3.1
2023-04-25T09:45:38.300Z,2.6
2023-04-25T10:00:39.384Z,1.2
2023-04-25T10:15:47.768Z,1.2
2023-04-25T10:30:40.043Z,0.4
2023-04-25T10:45:40.591Z,1.1
2023-04-25T11:15:41.863Z,0.8
2023-04-25T11:30:42.880Z,1.1
2023-04-25T11:45:43.304Z,1.3
2023-04-25T12:00:50.886Z,1.2
2023-04-25T12:15:51.368Z,1.1
2023-04-25T12:30:52.323Z,0.8
2023-04-25T12:45:52.175Z,0.8
2023-04-25T13:00:53.172Z,1.1
2023-04-25T13:15:51.554Z,1.5
2023-04-25T13:30:53.134Z,0.9
2023-04-25T13:45:52.175Z,1.5
2023-04-25T14:00:53.511Z,0.9
2023-04-25T14:15:53.212Z,0.8
2023-04-25T14:30:55.831Z,0.8
2023-04-25T14:45:53.891Z,0.7
2023-04-25T15:00:54.831Z,0.5
2023-04-25T15:15:53.476Z,0.7
2023-04-25T15:30:56.046Z,0.6
2023-04-25T15:45:54.462Z,2.2
2023-04-25T16:00:56.787Z,1.3
2023-04-25T16:15:56.008Z,2.4
2023-04-25T16:30:56.069Z,1
2023-04-25T16:45:56.809Z,1.8
2023-04-25T17:00:56.763Z,2.3
2023-04-25T17:15:57.275Z,1.9
2023-04-25T17:30:58.171Z,3.6
2023-04-25T17:45:58.040Z,2.5
2023-04-25T18:01:00.621Z,2.4
2023-04-25T18:16:00.314Z,1.7
2023-04-25T18:31:01.204Z,2
2023-04-25T18:46:00.909Z,2.5
2023-04-25T19:01:02.095Z,2.5
2023-04-25T19:16:02.247Z,1.8
2023-04-25T19:31:03.930Z,1.9
2023-04-25T19:46:03.585Z,2.2
2023-04-25T20:01:04.273Z,2.4
2023-04-25T20:16:10.233Z,3.2
2023-04-25T20:31:05.711Z,1.7
2023-04-25T20:46:06.542Z,1.3
2023-04-25T21:01:07.322Z,1.3
2023-04-25T21:16:07.072Z,1.4
2023-04-25T21:31:08.173Z,1.3
2023-04-25T21:46:23.952Z,1.1
2023-04-25T22:00:42.175Z,2.3
2023-04-25T22:15:35.500Z,1.6
2023-04-25T22:30:35.852Z,1.9
2023-04-25T22:45:36.858Z,1.8
2023-04-25T23:00:37.147Z,2.4
2023-04-25T23:15:37.403Z,2.4
2023-04-25T23:30:38.720Z,2.7
2023-04-25T23:45:38.476Z,3
